createdAt,value
2024-03-06T00:01:47.954Z,50.10
2024-03-06T00:04:16.185Z,50.30
2024-03-06T00:06:43.301Z,50.56
2024-03-06T00:09:09.616Z,50.56
2024-03-06T00:11:35.958Z,50.44
2024-03-06T00:14:02.589Z,49.78
2024-03-06T00:16:28.942Z,49.30
2024-03-06T00:18:55.284Z,49.60
2024-03-06T00:21:21.716Z,49.47
2024-03-06T00:23:48.041Z,49.35
2024-03-06T00:26:14.407Z,49.81
2024-03-06T00:28:40.922Z,50.03
2024-03-06T00:31:07.250Z,50.11
2024-03-06T00:33:33.568Z,50.82
2024-03-06T00:35:59.886Z,50.36
2024-03-06T00:38:26.189Z,50.41
2024-03-06T00:40:52.600Z,50.73
2024-03-06T00:43:18.967Z,50.71
2024-03-06T00:45:45.275Z,50.62
2024-03-06T00:48:11.629Z,50.71
2024-03-06T00:50:37.979Z,50.57
2024-03-06T00:53:04.324Z,50.46
2024-03-06T00:55:30.693Z,50.58
2024-03-06T00:57:57.025Z,50.52
2024-03-06T01:00:23.338Z,50.24
2024-03-06T01:02:49.674Z,50.42
2024-03-06T01:05:16.080Z,50.99
2024-03-06T01:07:42.644Z,50.96
2024-03-06T01:10:08.990Z,50.65
2024-03-06T01:12:35.330Z,50.42
2024-03-06T01:15:01.633Z,50.31
2024-03-06T01:17:28.006Z,50.43
2024-03-06T01:19:54.434Z,50.44
2024-03-06T01:22:20.762Z,51.06
2024-03-06T01:24:47.085Z,50.36
2024-03-06T01:27:13.440Z,50.66
2024-03-06T01:29:39.864Z,50.61
2024-03-06T01:32:06.237Z,50.64
2024-03-06T01:34:32.701Z,51.35
2024-03-06T01:36:59.039Z,51.11
2024-03-06T01:39:25.355Z,51.17
2024-03-06T01:41:51.764Z,51.04
2024-03-06T01:44:18.110Z,51.19
2024-03-06T01:46:44.492Z,50.80
2024-03-06T01:49:10.962Z,51.39
2024-03-06T01:51:37.305Z,51.52
2024-03-06T01:54:03.621Z,52.04
2024-03-06T01:56:29.976Z,51.92
2024-03-06T01:58:58.357Z,52.45
2024-03-06T02:01:24.944Z,51.49
2024-03-06T02:03:51.331Z,52.06
2024-03-06T02:06:17.655Z,51.69
2024-03-06T02:08:43.969Z,50.43
2024-03-06T02:11:10.501Z,50.30
2024-03-06T02:13:36.880Z,50.64
2024-03-06T02:16:03.257Z,51.24
2024-03-06T02:18:29.608Z,51.41
2024-03-06T02:20:56.159Z,52.21
2024-03-06T02:23:22.553Z,52.45
2024-03-06T02:25:49.016Z,52.38
2024-03-06T02:28:15.401Z,52.38
2024-03-06T02:30:41.715Z,52.31
2024-03-06T02:33:08.316Z,52.52
2024-03-06T02:35:34.793Z,52.06
2024-03-06T02:38:01.170Z,51.85
2024-03-06T02:40:27.680Z,52.39
2024-03-06T02:42:53.996Z,52.15
2024-03-06T02:45:20.328Z,51.67
2024-03-06T02:47:46.672Z,51.15
2024-03-06T02:50:13.153Z,51.21
2024-03-06T02:52:39.648Z,51.06
2024-03-06T02:55:06.012Z,51.44
2024-03-06T02:57:32.346Z,51.48
2024-03-06T02:59:58.650Z,51.38
2024-03-06T03:02:25.124Z,50.95
2024-03-06T03:04:51.496Z,51.42
2024-03-06T03:07:17.826Z,51.10
2024-03-06T03:09:44.244Z,50.70
2024-03-06T03:12:10.573Z,51.25
2024-03-06T03:14:36.893Z,51.50
2024-03-06T03:17:03.456Z,51.22
2024-03-06T03:19:29.800Z,51.52
2024-03-06T03:21:56.184Z,51.45
2024-03-06T03:24:22.847Z,52.03
2024-03-06T03:26:49.270Z,52.17
2024-03-06T03:29:15.644Z,52.50
2024-03-06T03:31:42.265Z,52.42
2024-03-06T03:34:08.581Z,51.42
2024-03-06T03:36:34.900Z,51.65
2024-03-06T03:39:01.406Z,52.15
2024-03-06T03:41:30.483Z,51.31
2024-03-06T03:43:56.807Z,51.68
2024-03-06T03:46:23.292Z,51.60
2024-03-06T03:48:49.596Z,52.15
2024-03-06T03:51:15.896Z,51.80
2024-03-06T03:53:42.302Z,51.71
2024-03-06T03:56:09.716Z,51.57
2024-03-06T03:58:36.099Z,51.19
2024-03-06T04:01:02.520Z,51.86
2024-03-06T04:03:28.831Z,52.06
2024-03-06T04:05:55.133Z,52.87
2024-03-06T04:08:21.509Z,52.37
2024-03-06T04:10:47.820Z,53.02
2024-03-06T04:13:14.199Z,52.89
2024-03-06T04:15:40.648Z,52.84
2024-03-06T04:18:06.972Z,53.12
2024-03-06T04:20:33.340Z,53.42
2024-03-06T04:22:59.698Z,53.12
2024-03-06T04:25:26.079Z,53.26
2024-03-06T04:27:52.387Z,53.07
2024-03-06T04:30:18.737Z,53.05
2024-03-06T04:32:45.378Z,53.57
2024-03-06T04:35:11.742Z,53.11
2024-03-06T04:37:38.103Z,53.23
2024-03-06T04:40:04.420Z,53.37
2024-03-06T04:42:30.752Z,52.22
2024-03-06T04:44:57.081Z,52.51
2024-03-06T04:47:23.391Z,52.25
2024-03-06T04:49:49.712Z,52.80
2024-03-06T04:52:16.172Z,52.64
2024-03-06T04:54:42.473Z,52.40
2024-03-06T04:57:08.798Z,52.74
2024-03-06T04:59:35.149Z,52.97
2024-03-06T05:02:01.519Z,53.28
2024-03-06T05:59:05.168Z,49.71
2024-03-06T06:01:31.565Z,48.69
2024-03-06T06:03:57.912Z,48.80
2024-03-06T06:06:24.225Z,49.42
2024-03-06T06:08:50.648Z,48.93
2024-03-06T06:11:17.047Z,49.02
2024-03-06T06:13:43.396Z,48.77
2024-03-06T06:16:09.840Z,48.85
2024-03-06T06:18:36.192Z,48.85
2024-03-06T06:21:02.536Z,48.41
2024-03-06T06:23:28.949Z,48.24
2024-03-06T06:25:55.293Z,48.53
2024-03-06T06:28:21.637Z,48.57
2024-03-06T06:30:48.075Z,48.19
2024-03-06T06:33:14.547Z,47.67
2024-03-06T06:35:40.990Z,48.49
2024-03-06T06:38:07.634Z,48.10
2024-03-06T06:40:33.965Z,47.65
2024-03-06T06:43:00.315Z,47.94
2024-03-06T06:45:26.856Z,47.61
2024-03-06T06:47:53.342Z,47.38
2024-03-06T06:50:19.780Z,47.39
2024-03-06T06:52:46.209Z,47.84
2024-03-06T06:55:12.561Z,47.71
2024-03-06T06:57:38.946Z,47.36
2024-03-06T07:00:05.436Z,47.70
2024-03-06T07:02:31.837Z,48.17
2024-03-06T07:04:58.161Z,49.44
2024-03-06T07:07:24.681Z,50.13
2024-03-06T07:09:50.998Z,51.35
2024-03-06T07:12:17.319Z,51.62
2024-03-06T07:14:43.832Z,51.09
2024-03-06T07:17:10.339Z,50.62
2024-03-06T07:19:36.773Z,50.62
2024-03-06T07:22:03.167Z,50.36
2024-03-06T07:24:29.476Z,50.30
2024-03-06T07:26:55.814Z,52.21
2024-03-06T07:29:22.720Z,51.43
2024-03-06T07:31:49.071Z,51.19
2024-03-06T07:34:15.401Z,51.45
2024-03-06T07:36:42.535Z,51.93
2024-03-06T07:39:08.843Z,52.47
2024-03-06T07:41:35.258Z,52.60
2024-03-06T07:44:01.743Z,51.96
2024-03-06T07:46:28.099Z,52.42
2024-03-06T07:48:54.421Z,52.48
2024-03-06T07:51:20.983Z,51.00
2024-03-06T07:53:47.401Z,50.75
2024-03-06T07:56:13.864Z,50.81
2024-03-06T07:58:40.292Z,50.83
2024-03-06T08:01:06.616Z,50.15
2024-03-06T08:03:32.951Z,49.26
2024-03-06T08:05:59.325Z,47.73
2024-03-06T08:08:25.740Z,48.97
2024-03-06T08:10:52.202Z,48.67
2024-03-06T08:13:18.957Z,48.95
2024-03-06T08:15:45.400Z,48.05
2024-03-06T08:18:12.046Z,48.65
2024-03-06T08:20:38.477Z,48.76
2024-03-06T08:23:04.860Z,48.54
2024-03-06T08:25:31.207Z,48.89
2024-03-06T08:27:57.566Z,47.85
2024-03-06T08:30:23.939Z,48.09
2024-03-06T08:32:50.454Z,48.05
2024-03-06T08:35:20.212Z,48.01
2024-03-06T08:37:48.205Z,47.57
2024-03-06T08:40:14.521Z,47.91
2024-03-06T08:42:40.885Z,47.77
2024-03-06T08:45:07.198Z,47.35
2024-03-06T08:47:33.610Z,46.89
2024-03-06T08:50:00.194Z,47.00
2024-03-06T08:52:26.596Z,46.74
2024-03-06T08:54:52.914Z,45.71
2024-03-06T08:57:19.390Z,45.84
2024-03-06T08:59:45.751Z,45.92
2024-03-06T09:02:12.135Z,45.79
2024-03-06T09:04:38.527Z,45.38
2024-03-06T09:07:04.848Z,44.57
2024-03-06T09:09:31.160Z,45.46
2024-03-06T09:11:57.591Z,45.31
2024-03-06T09:14:23.976Z,44.36
2024-03-06T09:16:50.337Z,43.52
2024-03-06T09:19:19.390Z,44.10
2024-03-06T09:21:45.985Z,43.44
2024-03-06T09:24:12.294Z,42.94
2024-03-06T09:26:38.837Z,43.27
2024-03-06T09:29:05.234Z,43.79
2024-03-06T09:31:31.561Z,42.96
2024-03-06T09:33:58.122Z,43.12
2024-03-06T09:36:24.502Z,43.16
2024-03-06T09:38:50.984Z,43.33
2024-03-06T09:41:17.448Z,42.87
2024-03-06T09:43:43.778Z,42.56
2024-03-06T09:46:10.143Z,43.07
2024-03-06T09:48:39.248Z,43.08
2024-03-06T09:51:06.605Z,41.82
2024-03-06T09:53:32.930Z,41.47
2024-03-06T09:55:59.318Z,42.89
2024-03-06T09:58:25.658Z,42.32
2024-03-06T10:00:51.999Z,41.32
2024-03-06T10:03:18.475Z,40.50
2024-03-06T10:05:44.882Z,40.95
2024-03-06T10:08:11.273Z,41.44
2024-03-06T10:10:37.973Z,40.83
2024-03-06T10:13:04.330Z,40.09
2024-03-06T10:15:30.683Z,41.19
2024-03-06T10:17:57.228Z,41.04
2024-03-06T10:20:23.766Z,40.69
2024-03-06T10:22:50.834Z,40.42
2024-03-06T10:25:17.874Z,40.29
2024-03-06T10:27:44.188Z,39.04
2024-03-06T10:30:10.490Z,39.60
2024-03-06T10:32:36.998Z,40.33
2024-03-06T10:35:03.410Z,39.93
2024-03-06T10:37:29.789Z,38.75
2024-03-06T10:39:56.272Z,39.92
2024-03-06T10:42:22.579Z,40.14
2024-03-06T10:44:48.963Z,38.97
2024-03-06T10:47:15.462Z,39.42
2024-03-06T10:49:41.792Z,38.12
2024-03-06T10:52:08.383Z,38.62
2024-03-06T10:54:34.971Z,38.78
2024-03-06T10:57:01.295Z,40.06
2024-03-06T10:59:27.635Z,39.30
2024-03-06T11:01:54.093Z,38.81
2024-03-06T11:04:20.462Z,39.25
2024-03-06T11:06:46.820Z,38.95
2024-03-06T11:09:13.238Z,39.94
2024-03-06T11:11:39.584Z,38.88
2024-03-06T11:14:05.977Z,38.65
2024-03-06T11:16:32.448Z,38.38
2024-03-06T11:18:58.768Z,38.13
2024-03-06T11:21:25.123Z,39.45
2024-03-06T11:23:51.565Z,39.17
2024-03-06T11:26:17.942Z,39.19
2024-03-06T11:28:44.248Z,37.88
2024-03-06T11:31:10.699Z,39.04
2024-03-06T11:33:37.470Z,39.06
2024-03-06T11:36:05.082Z,38.97
2024-03-06T11:38:31.656Z,39.37
2024-03-06T11:40:57.998Z,39.01
2024-03-06T11:43:24.306Z,39.14
2024-03-06T11:45:50.765Z,38.78
2024-03-06T11:48:17.127Z,37.68
2024-03-06T11:50:43.520Z,37.61
2024-03-06T11:53:11.603Z,38.20
2024-03-06T11:55:38.119Z,37.99
2024-03-06T11:58:04.495Z,38.01
2024-03-06T12:00:30.964Z,38.29
2024-03-06T12:02:57.350Z,37.73
2024-03-06T12:05:23.753Z,38.41
2024-03-06T12:07:50.122Z,37.14
2024-03-06T12:10:16.457Z,37.61
2024-03-06T12:12:42.797Z,37.70
2024-03-06T12:15:09.153Z,37.41
2024-03-06T12:17:35.515Z,35.73
2024-03-06T12:20:01.936Z,36.50
2024-03-06T12:22:28.336Z,37.88
2024-03-06T12:24:54.655Z,39.23
2024-03-06T12:27:20.960Z,39.59
2024-03-06T12:29:47.512Z,38.65
2024-03-06T12:32:13.926Z,38.19
2024-03-06T12:34:40.259Z,37.71
2024-03-06T12:37:06.628Z,38.52
2024-03-06T12:39:32.941Z,37.71
2024-03-06T12:41:59.247Z,37.76
2024-03-06T12:44:25.745Z,35.95
2024-03-06T12:46:52.083Z,37.14
2024-03-06T12:49:18.440Z,37.15
2024-03-06T12:51:44.889Z,37.29
2024-03-06T12:54:11.273Z,36.62
2024-03-06T12:56:37.644Z,36.94
2024-03-06T12:59:04.294Z,36.49
2024-03-06T13:01:30.774Z,37.30
2024-03-06T13:04:04.940Z,37.46
2024-03-06T13:06:32.790Z,36.96
2024-03-06T13:08:59.104Z,36.38
2024-03-06T13:11:25.567Z,36.07
2024-03-06T13:13:52.053Z,37.04
2024-03-06T13:16:18.346Z,36.45
2024-03-06T13:18:44.754Z,36.10
2024-03-06T13:21:11.258Z,37.06
2024-03-06T13:23:37.694Z,36.46
2024-03-06T13:26:04.050Z,36.15
2024-03-06T13:28:30.447Z,36.69
2024-03-06T13:30:56.774Z,35.65
2024-03-06T13:33:23.224Z,35.87
2024-03-06T13:35:49.661Z,36.34
2024-03-06T13:38:16.013Z,36.79
2024-03-06T13:40:42.332Z,36.89
2024-03-06T13:43:09.216Z,35.67
2024-03-06T13:45:35.527Z,36.60
2024-03-06T13:48:01.979Z,35.42
2024-03-06T13:50:28.484Z,34.96
2024-03-06T13:52:54.807Z,34.95
2024-03-06T13:55:21.132Z,34.77
2024-03-06T13:57:47.581Z,36.25
2024-03-06T14:00:13.938Z,33.43
2024-03-06T14:02:40.388Z,34.22
2024-03-06T14:05:06.821Z,33.99
2024-03-06T14:07:33.137Z,35.31
2024-03-06T14:10:01.966Z,35.10
2024-03-06T14:12:29.823Z,33.76
2024-03-06T14:14:56.176Z,33.17
2024-03-06T14:17:22.568Z,33.65
2024-03-06T14:19:48.940Z,34.30
2024-03-06T14:22:15.333Z,34.40
2024-03-06T14:24:41.638Z,33.59
2024-03-06T14:27:08.022Z,33.77
2024-03-06T14:29:34.473Z,34.18
2024-03-06T14:32:00.824Z,34.80
2024-03-06T14:34:27.250Z,33.60
2024-03-06T14:36:53.564Z,35.27
2024-03-06T14:39:19.875Z,35.25
2024-03-06T14:41:47.427Z,35.42
2024-03-06T14:44:13.765Z,34.38
2024-03-06T14:46:40.101Z,35.03
2024-03-06T14:49:06.545Z,34.82
2024-03-06T14:51:32.852Z,35.33
2024-03-06T14:53:59.160Z,35.93
2024-03-06T14:56:25.627Z,36.71
2024-03-06T14:58:51.971Z,36.46
2024-03-06T15:01:18.299Z,36.37
2024-03-06T15:03:44.772Z,35.41
2024-03-06T15:06:11.088Z,36.51
2024-03-06T15:08:38.936Z,36.71
2024-03-06T15:11:05.565Z,36.22
2024-03-06T15:13:31.915Z,36.46
2024-03-06T15:15:58.222Z,36.88
2024-03-06T15:18:25.438Z,36.27
2024-03-06T15:20:51.951Z,37.03
2024-03-06T15:23:18.340Z,35.63
2024-03-06T15:25:44.798Z,36.69
2024-03-06T15:28:11.120Z,36.47
2024-03-06T15:30:37.423Z,36.04
2024-03-06T15:33:03.891Z,36.49
2024-03-06T15:35:30.354Z,35.29
2024-03-06T15:37:56.736Z,36.17
2024-03-06T15:40:23.235Z,35.41
2024-03-06T15:42:49.535Z,35.60
2024-03-06T15:45:15.852Z,35.73
2024-03-06T15:47:42.387Z,36.10
2024-03-06T15:50:08.775Z,35.78
2024-03-06T15:52:35.134Z,36.48
2024-03-06T15:55:01.538Z,37.00
2024-03-06T15:57:27.878Z,36.45
2024-03-06T15:59:54.221Z,37.04
2024-03-06T16:02:20.777Z,36.47
2024-03-06T16:04:47.110Z,36.74
2024-03-06T16:07:13.447Z,35.94
2024-03-06T16:09:39.949Z,34.82
2024-03-06T16:12:06.339Z,34.44
2024-03-06T16:14:32.786Z,34.18
2024-03-06T16:16:59.397Z,34.58
2024-03-06T16:19:34.273Z,35.14
2024-03-06T16:22:04.317Z,35.86
2024-03-06T16:24:30.640Z,35.46
2024-03-06T16:26:56.984Z,35.58
2024-03-06T16:29:23.562Z,34.78
2024-03-06T16:31:49.902Z,34.20
2024-03-06T16:34:16.204Z,34.71
2024-03-06T16:36:42.646Z,33.66
2024-03-06T16:39:09.034Z,34.20
2024-03-06T16:41:35.401Z,34.02
2024-03-06T16:44:01.895Z,34.49
2024-03-06T16:46:28.222Z,34.62
2024-03-06T16:48:54.556Z,35.07
2024-03-06T16:51:20.969Z,35.56
2024-03-06T16:53:47.360Z,34.81
2024-03-06T16:56:13.801Z,35.10
2024-03-06T16:58:40.183Z,35.77
2024-03-06T17:01:06.622Z,35.93
2024-03-06T17:03:33.003Z,36.41
2024-03-06T17:05:59.783Z,36.65
2024-03-06T17:08:26.137Z,37.37
2024-03-06T17:10:52.621Z,37.80
2024-03-06T17:13:19.080Z,37.92
2024-03-06T17:15:45.466Z,38.12
2024-03-06T17:18:11.882Z,38.24
2024-03-06T17:20:40.698Z,38.57
2024-03-06T17:23:07.102Z,39.05
2024-03-06T17:25:33.447Z,39.49
2024-03-06T17:28:00.161Z,39.54
2024-03-06T17:30:26.547Z,39.62
2024-03-06T17:32:53.172Z,39.73
2024-03-06T17:35:19.858Z,40.21
2024-03-06T17:37:46.193Z,39.82
2024-03-06T17:40:12.539Z,39.98
2024-03-06T17:42:38.864Z,39.59
2024-03-06T17:45:05.211Z,39.75
2024-03-06T17:47:31.594Z,39.10
2024-03-06T17:49:58.012Z,38.89
2024-03-06T17:52:24.329Z,39.42
2024-03-06T17:54:50.634Z,39.17
2024-03-06T17:57:17.079Z,39.07
2024-03-06T17:59:43.408Z,38.84
2024-03-06T18:02:09.870Z,39.54
2024-03-06T18:04:36.275Z,39.15
2024-03-06T18:07:02.609Z,39.40
2024-03-06T18:09:28.941Z,39.43
2024-03-06T18:11:55.515Z,39.02
2024-03-06T18:14:21.913Z,39.53
2024-03-06T18:16:48.267Z,39.41
2024-03-06T18:19:14.636Z,39.43
2024-03-06T18:21:42.812Z,40.17
2024-03-06T18:24:11.201Z,39.57
2024-03-06T18:26:37.725Z,40.26
2024-03-06T18:29:04.194Z,39.80
2024-03-06T18:31:30.585Z,39.50
2024-03-06T18:33:57.037Z,39.79
2024-03-06T18:36:23.390Z,39.46
2024-03-06T18:38:49.726Z,40.37
2024-03-06T18:41:16.243Z,40.46
2024-03-06T18:43:44.891Z,40.08
2024-03-06T18:46:12.610Z,40.13
2024-03-06T18:48:39.098Z,40.06
2024-03-06T18:51:05.514Z,40.29
2024-03-06T18:53:31.892Z,40.50
2024-03-06T18:55:58.434Z,40.54
2024-03-06T18:58:24.768Z,40.03
2024-03-06T19:00:51.103Z,40.82
2024-03-06T19:03:17.737Z,40.70
2024-03-06T19:05:44.109Z,41.04
2024-03-06T19:08:10.475Z,41.07
2024-03-06T19:10:37.127Z,40.83
2024-03-06T19:13:03.432Z,41.13
2024-03-06T19:15:29.791Z,41.40
2024-03-06T19:17:56.299Z,41.03
2024-03-06T19:20:22.705Z,41.53
2024-03-06T19:22:49.053Z,41.38
2024-03-06T19:25:17.104Z,41.20
2024-03-06T19:27:45.007Z,41.18
2024-03-06T19:30:11.312Z,41.55
2024-03-06T19:32:46.218Z,41.44
2024-03-06T19:35:17.411Z,41.45
2024-03-06T19:37:43.765Z,41.58
2024-03-06T19:40:10.084Z,42.05
2024-03-06T19:42:36.408Z,42.12
2024-03-06T19:45:02.849Z,41.99
2024-03-06T19:47:29.204Z,41.90
2024-03-06T19:49:55.538Z,42.01
2024-03-06T19:52:22.129Z,42.35
2024-03-06T19:54:48.477Z,42.17
2024-03-06T19:57:14.846Z,42.43
2024-03-06T19:59:41.489Z,42.28
2024-03-06T20:02:07.982Z,42.80
2024-03-06T20:04:34.343Z,42.52
2024-03-06T20:07:00.745Z,42.33
2024-03-06T20:09:27.072Z,42.51
2024-03-06T20:11:53.519Z,42.51
2024-03-06T20:14:20.012Z,42.46
2024-03-06T20:16:46.342Z,42.91
2024-03-06T20:19:12.674Z,42.75
2024-03-06T20:21:39.102Z,42.92
2024-03-06T20:24:05.438Z,43.03
2024-03-06T20:26:31.813Z,42.96
2024-03-06T20:28:58.285Z,43.84
2024-03-06T20:31:24.637Z,43.07
2024-03-06T20:33:50.954Z,43.22
2024-03-06T20:36:17.361Z,43.38
2024-03-06T20:38:43.734Z,43.35
2024-03-06T20:41:10.129Z,43.42
2024-03-06T20:43:36.618Z,43.32
2024-03-06T20:46:02.940Z,43.48
2024-03-06T20:48:29.305Z,43.67
2024-03-06T20:50:55.832Z,43.76
2024-03-06T20:53:22.212Z,43.89
2024-03-06T20:55:48.590Z,44.12
2024-03-06T20:58:15.085Z,44.35
2024-03-06T21:00:41.440Z,44.24
2024-03-06T21:03:07.782Z,44.22
2024-03-06T21:05:34.229Z,44.27
2024-03-06T21:08:00.599Z,44.28
2024-03-06T21:10:26.928Z,44.85
2024-03-06T21:12:53.534Z,44.80
2024-03-06T21:15:19.897Z,44.77
2024-03-06T21:17:46.265Z,45.19
2024-03-06T21:20:13.031Z,44.78
2024-03-06T21:22:39.489Z,45.06
2024-03-06T21:25:05.805Z,45.15
2024-03-06T21:27:32.235Z,45.39
2024-03-06T21:29:58.590Z,45.31
2024-03-06T21:32:24.913Z,45.45
2024-03-06T21:34:51.423Z,45.53
2024-03-06T21:37:17.778Z,45.52
2024-03-06T21:39:44.098Z,45.74
2024-03-06T21:42:10.540Z,45.70
2024-03-06T21:44:36.916Z,45.85
2024-03-06T21:47:03.306Z,46.55
2024-03-06T21:49:29.741Z,46.47
2024-03-06T21:51:56.058Z,46.33
2024-03-06T21:54:22.360Z,46.46
2024-03-06T21:56:48.821Z,46.47
2024-03-06T21:59:15.173Z,46.54
2024-03-06T22:01:41.507Z,46.63
2024-03-06T22:04:08.035Z,47.14
2024-03-06T22:06:34.342Z,47.02
2024-03-06T22:09:00.663Z,47.23
2024-03-06T22:11:27.191Z,47.54
2024-03-06T22:13:53.575Z,47.68
2024-03-06T22:16:19.894Z,47.63
2024-03-06T22:18:46.332Z,48.01
2024-03-06T22:21:12.731Z,48.31
2024-03-06T22:23:39.063Z,48.49
2024-03-06T22:26:05.524Z,48.31
2024-03-06T22:28:31.878Z,48.35
2024-03-06T22:30:58.189Z,48.17
2024-03-06T22:33:24.727Z,48.11
2024-03-06T22:35:51.098Z,48.65
2024-03-06T22:38:17.467Z,48.72
2024-03-06T22:40:43.903Z,48.68
2024-03-06T22:43:10.228Z,48.53
2024-03-06T22:45:36.546Z,48.43
2024-03-06T22:48:03.273Z,48.86
2024-03-06T22:50:29.755Z,48.72
2024-03-06T22:52:56.100Z,49.09
2024-03-06T22:55:22.544Z,48.85
2024-03-06T22:57:48.896Z,48.86
2024-03-06T23:00:15.245Z,48.76
2024-03-06T23:02:41.715Z,48.86
2024-03-06T23:05:09.898Z,48.63
2024-03-06T23:07:36.330Z,48.59
2024-03-06T23:10:03.156Z,48.33
2024-03-06T23:12:29.509Z,48.23
2024-03-06T23:14:55.890Z,48.49
2024-03-06T23:17:22.433Z,48.48
2024-03-06T23:19:48.755Z,47.94
2024-03-06T23:22:15.052Z,48.21
2024-03-06T23:24:41.441Z,48.71
2024-03-06T23:27:07.808Z,48.05
2024-03-06T23:29:34.122Z,48.89
2024-03-06T23:32:00.561Z,48.67
2024-03-06T23:34:26.865Z,48.73
2024-03-06T23:36:53.169Z,48.73
2024-03-06T23:39:19.601Z,48.93
2024-03-06T23:41:45.936Z,48.92
2024-03-06T23:44:12.438Z,49.23
2024-03-06T23:46:38.951Z,49.26
2024-03-06T23:49:05.271Z,49.16
2024-03-06T23:51:31.583Z,50.29
2024-03-06T23:53:57.969Z,50.23
2024-03-06T23:56:24.306Z,50.34
2024-03-06T23:58:50.625Z,50.32
